Wetterdaten: Woche 12.05.14 - 18.05.14 (KW20)
Datum Zeit Temperatur Luftfeuchte Luftdruck Niederschlag Windrichtung Sonnenschein Solar Wind
12.05.2014 00:00 6,3 C 88 % 1011,6 hPa 0,0 l/m W 0,00 h 0 W/m 24,9 km/h (4 Bft)
12.05.2014 01:00 6,2 C 89 % 1012,2 hPa 0,0 l/m W-SW 0,00 h 0 W/m 26,3 km/h (4 Bft)
12.05.2014 02:00 6,4 C 89 % 1012,4 hPa 0,0 l/m SW 0,00 h 0 W/m 28,4 km/h (4 Bft)
12.05.2014 03:00 6,2 C 89 % 1012,5 hPa 0,0 l/m W-SW 0,00 h 0 W/m 24,5 km/h (4 Bft)
12.05.2014 04:00 5,8 C 90 % 1012,4 hPa 0,0 l/m W-SW 0,00 h 0 W/m 21,7 km/h (4 Bft)
12.05.2014 05:00 5,4 C 91 % 1012,4 hPa 0,0 l/m SW 0,00 h 6 W/m 16,5 km/h (3 Bft)
12.05.2014 06:00 5,7 C 91 % 1012,7 hPa 0,0 l/m W-SW 0,25 h 55 W/m 24,5 km/h (4 Bft)
12.05.2014 07:00 6,9 C 88 % 1012,9 hPa 0,0 l/m SW 0,33 h 108 W/m 25,8 km/h (4 Bft)
12.05.2014 08:00 7,7 C 85 % 1013,1 hPa 0,0 l/m W-SW 0,50 h 309 W/m 29,6 km/h (5 Bft)
12.05.2014 09:00 8,6 C 80 % 1013,3 hPa 0,0 l/m W-SW 0,00 h 183 W/m 22,5 km/h (4 Bft)
12.05.2014 10:00 9,0 C 77 % 1013,4 hPa 0,0 l/m W-SW 0,08 h 168 W/m 27,0 km/h (4 Bft)
12.05.2014 11:00 9,6 C 75 % 1013,3 hPa 0,0 l/m W-SW 0,25 h 353 W/m 23,4 km/h (4 Bft)
12.05.2014 12:00 9,7 C 79 % 1013,1 hPa 1,4 l/m W-SW 0,42 h 486 W/m 19,3 km/h (3 Bft)
12.05.2014 13:00 9,3 C 83 % 1013,2 hPa 1,2 l/m W 0,33 h 345 W/m 24,0 km/h (4 Bft)
12.05.2014 14:00 10,6 C 79 % 1012,8 hPa 0,0 l/m W-SW 1,00 h 581 W/m 29,6 km/h (5 Bft)
12.05.2014 15:00 11,5 C 69 % 1012,4 hPa 0,0 l/m W-SW 0,50 h 399 W/m 25,9 km/h (4 Bft)
12.05.2014 16:00 11,0 C 69 % 1012,3 hPa 0,0 l/m W 0,33 h 199 W/m 23,9 km/h (4 Bft)
12.05.2014 17:00 9,6 C 78 % 1012,5 hPa 0,2 l/m W 0,08 h 212 W/m 23,3 km/h (4 Bft)
12.05.2014 18:00 9,2 C 72 % 1012,7 hPa 0,0 l/m W-NW 0,17 h 150 W/m 15,7 km/h (3 Bft)
12.05.2014 19:00 9,4 C 75 % 1012,6 hPa 0,0 l/m W-NW 0,00 h 41 W/m 9,1 km/h (2 Bft)
12.05.2014 20:00 8,7 C 82 % 1012,8 hPa 0,0 l/m W 0,00 h 12 W/m 3,2 km/h (1 Bft)
12.05.2014 21:00 8,2 C 80 % 1013,3 hPa 0,0 l/m W 0,00 h 0 W/m 7,0 km/h (2 Bft)
12.05.2014 22:00 7,7 C 77 % 1013,7 hPa 0,0 l/m W 0,00 h 0 W/m 13,0 km/h (3 Bft)
12.05.2014 23:00 7,1 C 78 % 1014,1 hPa 0,0 l/m W 0,00 h 0 W/m 10,1 km/h (2 Bft)
13.05.2014 00:00 6,9 C 81 % 1014,2 hPa 0,0 l/m W-SW 0,00 h 0 W/m 6,5 km/h (2 Bft)
13.05.2014 01:00 6,5 C 83 % 1014,3 hPa 0,0 l/m W-SW 0,00 h 0 W/m 9,5 km/h (2 Bft)
13.05.2014 02:00 6,3 C 85 % 1014,0 hPa 0,0 l/m W-SW 0,00 h 0 W/m 12,5 km/h (3 Bft)
13.05.2014 03:00 6,4 C 86 % 1014,0 hPa 0,0 l/m W-SW 0,00 h 0 W/m 12,6 km/h (3 Bft)
13.05.2014 04:00 6,3 C 87 % 1014,0 hPa 0,0 l/m W-SW 0,00 h 0 W/m 8,9 km/h (2 Bft)
13.05.2014 05:00 6,2 C 89 % 1013,9 hPa 0,0 l/m W-SW 0,00 h 0 W/m 5,3 km/h (1 Bft)
13.05.2014 06:00 5,9 C 92 % 1013,8 hPa 0,2 l/m W-SW 0,00 h 12 W/m 5,5 km/h (1 Bft)
13.05.2014 07:00 6,4 C 93 % 1014,2 hPa 0,0 l/m W-SW 0,00 h 79 W/m 9,5 km/h (2 Bft)
13.05.2014 08:00 6,8 C 91 % 1014,7 hPa 0,0 l/m W-SW 0,00 h 140 W/m 12,2 km/h (2 Bft)
13.05.2014 09:00 8,2 C 85 % 1014,7 hPa 0,0 l/m W 0,08 h 256 W/m 15,2 km/h (3 Bft)
13.05.2014 10:00 9,3 C 76 % 1014,6 hPa 0,0 l/m W 0,42 h 345 W/m 13,7 km/h (3 Bft)
13.05.2014 11:00 9,0 C 77 % 1014,7 hPa 0,6 l/m W-SW 0,33 h 325 W/m 13,3 km/h (3 Bft)
13.05.2014 12:00 8,1 C 88 % 1014,9 hPa 1,4 l/m W 0,08 h 131 W/m 6,3 km/h (2 Bft)
13.05.2014 13:00 7,1 C 91 % 1015,3 hPa 1,8 l/m N 0,00 h 54 W/m 7,6 km/h (2 Bft)
13.05.2014 14:00 6,9 C 94 % 1015,7 hPa 1,4 l/m W-SW 0,00 h 118 W/m 4,3 km/h (1 Bft)
13.05.2014 15:00 8,7 C 92 % 1015,7 hPa 0,0 l/m SW 0,33 h 412 W/m 10,1 km/h (2 Bft)
13.05.2014 16:00 9,0 C 90 % 1015,6 hPa 0,2 l/m S 0,00 h 82 W/m 9,3 km/h (2 Bft)
13.05.2014 17:00 8,3 C 92 % 1016,0 hPa 0,6 l/m SW 0,17 h 111 W/m 16,8 km/h (3 Bft)
13.05.2014 18:00 8,5 C 92 % 1016,2 hPa 0,4 l/m S-SW 0,50 h 204 W/m 23,9 km/h (4 Bft)
13.05.2014 19:00 4,8 C 92 % 1017,4 hPa 2,6 l/m W-NW 0,33 h 75 W/m 3,3 km/h (1 Bft)
13.05.2014 20:00 4,7 C 96 % 1018,2 hPa 0,8 l/m N 0,00 h 12 W/m 0,8 km/h (0 Bft)
13.05.2014 21:00 4,4 C 97 % 1018,9 hPa 0,2 l/m N 0,00 h 0 W/m 0,1 km/h (0 Bft)
13.05.2014 22:00 4,7 C 98 % 1019,8 hPa 0,4 l/m N 0,00 h 0 W/m 0,4 km/h (0 Bft)
13.05.2014 23:00 5,1 C 98 % 1020,3 hPa 0,4 l/m N 0,00 h 0 W/m 0,7 km/h (0 Bft)
14.05.2014 00:00 5,5 C 98 % 1020,6 hPa 0,6 l/m W-NW 0,00 h 0 W/m 3,7 km/h (1 Bft)
14.05.2014 01:00 5,7 C 98 % 1021,2 hPa 0,2 l/m W-NW 0,00 h 0 W/m 2,3 km/h (1 Bft)
14.05.2014 02:00 5,8 C 98 % 1021,4 hPa 1,8 l/m W-NW 0,00 h 0 W/m 3,7 km/h (1 Bft)
14.05.2014 03:00 5,7 C 97 % 1021,5 hPa 0,4 l/m W 0,00 h 0 W/m 7,4 km/h (2 Bft)
14.05.2014 04:00 5,6 C 97 % 1021,8 hPa 0,2 l/m W 0,00 h 0 W/m 10,9 km/h (2 Bft)
14.05.2014 05:00 5,8 C 97 % 1022,2 hPa 0,0 l/m W-NW 0,00 h 0 W/m 10,4 km/h (2 Bft)
14.05.2014 06:00 6,1 C 97 % 1022,7 hPa 0,2 l/m W-NW 0,00 h 17 W/m 3,6 km/h (1 Bft)
14.05.2014 07:00 6,5 C 97 % 1023,3 hPa 0,0 l/m W-NW 0,00 h 31 W/m 2,7 km/h (1 Bft)
14.05.2014 08:00 7,0 C 97 % 1024,0 hPa 0,0 l/m N 0,00 h 70 W/m 6,6 km/h (2 Bft)
14.05.2014 09:00 7,6 C 94 % 1024,7 hPa 0,0 l/m N 0,33 h 288 W/m 13,1 km/h (3 Bft)
14.05.2014 10:00 9,3 C 77 % 1025,0 hPa 0,0 l/m NO 0,58 h 439 W/m 16,4 km/h (3 Bft)
14.05.2014 11:00 10,6 C 66 % 1025,5 hPa 0,0 l/m N-NO 0,75 h 686 W/m 18,1 km/h (3 Bft)
14.05.2014 12:00 11,3 C 60 % 1025,8 hPa 0,0 l/m N-NO 0,50 h 627 W/m 18,8 km/h (3 Bft)
14.05.2014 13:00 12,2 C 53 % 1025,8 hPa 0,0 l/m N-NW 0,42 h 544 W/m 18,1 km/h (3 Bft)
14.05.2014 14:00 12,8 C 47 % 1025,6 hPa 0,0 l/m N 0,58 h 695 W/m 19,2 km/h (3 Bft)
14.05.2014 15:00 13,1 C 47 % 1025,4 hPa 0,0 l/m N-NO 0,67 h 718 W/m 17,8 km/h (3 Bft)
14.05.2014 16:00 13,2 C 47 % 1025,2 hPa 0,0 l/m N 0,58 h 454 W/m 18,6 km/h (3 Bft)
14.05.2014 17:00 13,6 C 44 % 1025,1 hPa 0,0 l/m N 0,92 h 498 W/m 18,2 km/h (3 Bft)
14.05.2014 18:00 13,3 C 41 % 1025,2 hPa 0,0 l/m N-NO 0,83 h 311 W/m 15,0 km/h (3 Bft)
14.05.2014 19:00 12,1 C 47 % 1025,5 hPa 0,0 l/m N-NO 0,42 h 109 W/m 11,6 km/h (2 Bft)
14.05.2014 20:00 9,8 C 58 % 1025,9 hPa 0,0 l/m N-NO 0,08 h 19 W/m 4,5 km/h (1 Bft)
14.05.2014 21:00 7,3 C 71 % 1026,3 hPa 0,0 l/m N 0,00 h 0 W/m 3,7 km/h (1 Bft)
14.05.2014 22:00 6,0 C 79 % 1026,4 hPa 0,0 l/m N 0,00 h 0 W/m 1,1 km/h (0 Bft)
14.05.2014 23:00 5,5 C 84 % 1026,4 hPa 0,0 l/m O 0,00 h 0 W/m 2,3 km/h (1 Bft)
15.05.2014 00:00 5,8 C 89 % 1026,7 hPa 0,4 l/m N-NW 0,00 h 0 W/m 6,0 km/h (2 Bft)
15.05.2014 01:00 5,9 C 92 % 1026,7 hPa 0,0 l/m N-NO 0,00 h 0 W/m 6,7 km/h (2 Bft)
15.05.2014 02:00 5,8 C 92 % 1026,8 hPa 0,0 l/m N 0,00 h 0 W/m 2,1 km/h (1 Bft)
15.05.2014 03:00 5,6 C 94 % 1026,5 hPa 0,0 l/m N 0,00 h 0 W/m 2,0 km/h (1 Bft)
15.05.2014 04:00 5,4 C 94 % 1026,4 hPa 0,0 l/m N 0,00 h 0 W/m 0,9 km/h (0 Bft)
15.05.2014 05:00 5,4 C 95 % 1026,7 hPa 0,2 l/m N 0,00 h 0 W/m 1,7 km/h (1 Bft)
15.05.2014 06:00 5,5 C 96 % 1027,0 hPa 0,2 l/m N 0,00 h 11 W/m 1,9 km/h (1 Bft)
15.05.2014 07:00 5,8 C 96 % 1027,3 hPa 0,0 l/m N 0,00 h 33 W/m 3,1 km/h (1 Bft)
15.05.2014 08:00 6,5 C 94 % 1027,7 hPa 0,0 l/m N-NO 0,00 h 101 W/m 8,9 km/h (2 Bft)
15.05.2014 09:00 7,3 C 89 % 1027,9 hPa 0,0 l/m NO 0,08 h 195 W/m 11,1 km/h (2 Bft)
15.05.2014 10:00 8,4 C 83 % 1027,8 hPa 0,0 l/m O-NO 0,17 h 335 W/m 16,0 km/h (3 Bft)
15.05.2014 11:00 8,9 C 74 % 1027,7 hPa 0,0 l/m NO 0,00 h 209 W/m 16,4 km/h (3 Bft)
15.05.2014 12:00 9,2 C 70 % 1027,9 hPa 0,0 l/m NO 0,00 h 233 W/m 17,7 km/h (3 Bft)
15.05.2014 13:00 10,4 C 62 % 1027,8 hPa 0,0 l/m NO 0,42 h 450 W/m 18,1 km/h (3 Bft)
15.05.2014 14:00 11,7 C 54 % 1027,7 hPa 0,0 l/m O-NO 0,42 h 521 W/m 18,8 km/h (3 Bft)
15.05.2014 15:00 11,4 C 55 % 1027,8 hPa 0,0 l/m O-NO 0,25 h 367 W/m 21,9 km/h (4 Bft)
15.05.2014 16:00 11,2 C 56 % 1028,1 hPa 0,0 l/m NO 0,33 h 469 W/m 21,8 km/h (4 Bft)
15.05.2014 17:00 10,9 C 57 % 1028,2 hPa 0,0 l/m NO 0,17 h 178 W/m 22,4 km/h (4 Bft)
15.05.2014 18:00 10,6 C 58 % 1028,4 hPa 0,0 l/m O-NO 0,17 h 160 W/m 18,1 km/h (3 Bft)
15.05.2014 19:00 9,6 C 63 % 1028,7 hPa 0,0 l/m NO 0,00 h 59 W/m 10,7 km/h (2 Bft)
15.05.2014 20:00 8,9 C 68 % 1029,0 hPa 0,0 l/m N-NO 0,08 h 17 W/m 7,1 km/h (2 Bft)
15.05.2014 21:00 7,3 C 76 % 1029,4 hPa 0,0 l/m N-NO 0,00 h 0 W/m 6,1 km/h (2 Bft)
15.05.2014 22:00 6,3 C 79 % 1029,6 hPa 0,0 l/m N-NO 0,00 h 0 W/m 4,7 km/h (1 Bft)
15.05.2014 23:00 7,2 C 76 % 1029,4 hPa 0,0 l/m N-NO 0,00 h 0 W/m 4,9 km/h (1 Bft)
16.05.2014 00:00 6,8 C 80 % 1029,1 hPa 0,0 l/m N 0,00 h 0 W/m 2,8 km/h (1 Bft)
16.05.2014 01:00 6,4 C 84 % 1028,7 hPa 0,0 l/m N-NO 0,00 h 0 W/m 3,9 km/h (1 Bft)
16.05.2014 02:00 6,5 C 86 % 1028,2 hPa 0,0 l/m N-NO 0,00 h 0 W/m 3,3 km/h (1 Bft)
16.05.2014 03:00 6,5 C 89 % 1027,4 hPa 0,0 l/m N 0,00 h 0 W/m 1,3 km/h (1 Bft)
16.05.2014 04:00 6,6 C 91 % 1026,8 hPa 0,0 l/m N-NO 0,00 h 0 W/m 5,3 km/h (1 Bft)
16.05.2014 05:00 7,0 C 90 % 1026,5 hPa 0,0 l/m N-NO 0,08 h 8 W/m 10,1 km/h (2 Bft)
16.05.2014 06:00 6,9 C 92 % 1026,4 hPa 0,0 l/m N-NO 0,00 h 39 W/m 9,5 km/h (2 Bft)
16.05.2014 07:00 7,9 C 89 % 1026,6 hPa 0,0 l/m N-NO 0,00 h 104 W/m 11,8 km/h (2 Bft)
16.05.2014 08:00 8,5 C 85 % 1026,5 hPa 0,0 l/m NO 0,00 h 136 W/m 15,8 km/h (3 Bft)
16.05.2014 09:00 9,5 C 79 % 1026,2 hPa 0,0 l/m O-NO 0,17 h 166 W/m 17,2 km/h (3 Bft)
16.05.2014 10:00 10,5 C 74 % 1025,7 hPa 0,0 l/m NO 0,42 h 425 W/m 20,4 km/h (4 Bft)
16.05.2014 11:00 11,7 C 66 % 1025,0 hPa 0,0 l/m NO 0,42 h 496 W/m 20,5 km/h (4 Bft)
16.05.2014 12:00 12,8 C 56 % 1024,5 hPa 0,0 l/m O-NO 0,33 h 386 W/m 20,1 km/h (4 Bft)
16.05.2014 13:00 14,1 C 50 % 1023,9 hPa 0,0 l/m N-NO 0,50 h 659 W/m 23,4 km/h (4 Bft)
16.05.2014 14:00 14,2 C 50 % 1023,6 hPa 0,0 l/m N-NO 0,42 h 477 W/m 24,0 km/h (4 Bft)
16.05.2014 15:00 14,9 C 45 % 1023,0 hPa 0,0 l/m NO 0,67 h 587 W/m 24,1 km/h (4 Bft)
16.05.2014 16:00 14,6 C 45 % 1022,5 hPa 0,0 l/m O-NO 0,58 h 377 W/m 25,5 km/h (4 Bft)
16.05.2014 17:00 14,4 C 45 % 1022,3 hPa 0,0 l/m O-NO 0,42 h 286 W/m 23,0 km/h (4 Bft)
16.05.2014 18:00 14,4 C 46 % 1022,0 hPa 0,0 l/m O-NO 0,58 h 246 W/m 21,3 km/h (4 Bft)
16.05.2014 19:00 13,8 C 48 % 1022,0 hPa 0,0 l/m O-NO 0,17 h 78 W/m 18,2 km/h (3 Bft)
16.05.2014 20:00 12,4 C 55 % 1022,0 hPa 0,0 l/m O 0,00 h 13 W/m 10,2 km/h (2 Bft)
16.05.2014 21:00 10,4 C 64 % 1022,8 hPa 0,0 l/m S 0,00 h 0 W/m 7,5 km/h (2 Bft)
16.05.2014 22:00 9,3 C 69 % 1022,5 hPa 0,0 l/m S-SO 0,00 h 0 W/m 2,4 km/h (1 Bft)
16.05.2014 23:00 8,8 C 74 % 1022,0 hPa 0,0 l/m N 0,00 h 0 W/m 0,5 km/h (0 Bft)
17.05.2014 00:00 8,4 C 76 % 1021,5 hPa 0,0 l/m S-SO 0,00 h 0 W/m 1,1 km/h (0 Bft)
17.05.2014 01:00 8,2 C 80 % 1021,1 hPa 0,0 l/m S-SO 0,00 h 0 W/m 1,2 km/h (1 Bft)
17.05.2014 02:00 8,0 C 80 % 1020,6 hPa 0,0 l/m S-SO 0,00 h 0 W/m 4,5 km/h (1 Bft)
17.05.2014 03:00 7,9 C 79 % 1020,1 hPa 0,0 l/m S-SO 0,00 h 0 W/m 4,0 km/h (1 Bft)
17.05.2014 04:00 7,7 C 83 % 1019,6 hPa 0,0 l/m N 0,00 h 0 W/m 0,5 km/h (0 Bft)
17.05.2014 05:00 7,2 C 87 % 1019,3 hPa 0,0 l/m N 0,00 h 7 W/m 0,3 km/h (0 Bft)
17.05.2014 06:00 7,0 C 89 % 1019,1 hPa 0,0 l/m N 0,00 h 30 W/m 0,0 km/h (0 Bft)
17.05.2014 07:00 8,6 C 80 % 1019,3 hPa 0,0 l/m S-SO 0,17 h 88 W/m 1,6 km/h (1 Bft)
17.05.2014 08:00 9,7 C 74 % 1019,5 hPa 0,0 l/m S-SO 0,25 h 217 W/m 2,9 km/h (1 Bft)
17.05.2014 09:00 11,7 C 67 % 1019,2 hPa 0,0 l/m O 1,00 h 518 W/m 9,8 km/h (2 Bft)
17.05.2014 10:00 12,8 C 64 % 1018,9 hPa 0,0 l/m O-NO 0,50 h 373 W/m 12,1 km/h (2 Bft)
17.05.2014 11:00 13,4 C 62 % 1018,6 hPa 0,0 l/m O-NO 0,33 h 398 W/m 12,5 km/h (3 Bft)
17.05.2014 12:00 14,3 C 58 % 1018,4 hPa 0,0 l/m O 0,50 h 522 W/m 13,8 km/h (3 Bft)
17.05.2014 13:00 15,3 C 55 % 1017,8 hPa 0,0 l/m O-SO 0,83 h 888 W/m 14,5 km/h (3 Bft)
17.05.2014 14:00 14,8 C 55 % 1017,4 hPa 0,0 l/m N-NO 0,17 h 192 W/m 13,4 km/h (3 Bft)
17.05.2014 15:00 14,5 C 54 % 1017,4 hPa 0,0 l/m N 0,00 h 240 W/m 10,3 km/h (2 Bft)
17.05.2014 16:00 15,3 C 50 % 1017,1 hPa 0,0 l/m N-NO 0,25 h 318 W/m 12,1 km/h (2 Bft)
17.05.2014 17:00 14,7 C 55 % 1016,9 hPa 0,0 l/m N-NO 0,50 h 329 W/m 8,0 km/h (2 Bft)
17.05.2014 18:00 16,0 C 50 % 1016,7 hPa 0,0 l/m NW 1,00 h 375 W/m 7,5 km/h (2 Bft)
17.05.2014 19:00 14,9 C 52 % 1016,6 hPa 0,0 l/m O 0,00 h 48 W/m 5,7 km/h (1 Bft)
17.05.2014 20:00 12,5 C 67 % 1016,5 hPa 0,0 l/m N 0,00 h 15 W/m 2,0 km/h (1 Bft)
17.05.2014 21:00 10,2 C 74 % 1016,7 hPa 0,0 l/m N 0,00 h 0 W/m 1,9 km/h (1 Bft)
17.05.2014 22:00 8,6 C 81 % 1016,7 hPa 0,0 l/m N 0,00 h 0 W/m 0,5 km/h (0 Bft)
17.05.2014 23:00 7,8 C 86 % 1016,6 hPa 0,0 l/m N 0,00 h 0 W/m 0,1 km/h (0 Bft)
18.05.2014 00:00 7,0 C 90 % 1016,4 hPa 0,0 l/m N 0,00 h 0 W/m 0,0 km/h (0 Bft)
18.05.2014 01:00 6,3 C 92 % 1015,9 hPa 0,0 l/m N 0,00 h 0 W/m 0,0 km/h (0 Bft)
18.05.2014 02:00 5,8 C 93 % 1015,4 hPa 0,0 l/m N 0,00 h 0 W/m 0,1 km/h (0 Bft)
18.05.2014 03:00 5,3 C 94 % 1015,2 hPa 0,0 l/m N 0,00 h 0 W/m 0,1 km/h (0 Bft)
18.05.2014 04:00 5,0 C 95 % 1015,0 hPa 0,0 l/m N 0,00 h 0 W/m 0,0 km/h (0 Bft)
18.05.2014 05:00 4,1 C 95 % 1014,9 hPa 0,0 l/m O 0,00 h 6 W/m 1,6 km/h (1 Bft)
18.05.2014 06:00 4,3 C 96 % 1014,7 hPa 0,0 l/m N 0,00 h 38 W/m 0,7 km/h (0 Bft)
18.05.2014 07:00 6,6 C 92 % 1014,6 hPa 0,0 l/m N 0,75 h 175 W/m 0,9 km/h (0 Bft)
18.05.2014 08:00 10,0 C 82 % 1014,5 hPa 0,0 l/m O 1,00 h 340 W/m 2,1 km/h (1 Bft)
18.05.2014 09:00 12,9 C 72 % 1013,9 hPa 0,0 l/m O 1,00 h 507 W/m 5,1 km/h (1 Bft)
18.05.2014 10:00 15,4 C 61 % 1013,4 hPa 0,0 l/m O-SO 0,92 h 635 W/m 7,0 km/h (2 Bft)
18.05.2014 11:00 16,3 C 57 % 1012,7 hPa 0,0 l/m O 1,00 h 804 W/m 9,5 km/h (2 Bft)
18.05.2014 12:00 17,7 C 53 % 1012,3 hPa 0,0 l/m O-SO 1,00 h 899 W/m 10,6 km/h (2 Bft)
18.05.2014 13:00 18,9 C 50 % 1011,7 hPa 0,0 l/m S-SO 1,00 h 931 W/m 9,8 km/h (2 Bft)
18.05.2014 14:00 18,8 C 50 % 1011,2 hPa 0,0 l/m N-NO 0,42 h 489 W/m 9,1 km/h (2 Bft)
18.05.2014 15:00 19,1 C 50 % 1010,5 hPa 0,0 l/m NW 0,83 h 740 W/m 7,5 km/h (2 Bft)
18.05.2014 16:00 19,7 C 47 % 1009,9 hPa 0,0 l/m NW 0,58 h 433 W/m 5,9 km/h (2 Bft)
18.05.2014 17:00 20,3 C 44 % 1009,3 hPa 0,0 l/m O 0,83 h 482 W/m 9,4 km/h (2 Bft)
18.05.2014 18:00 20,2 C 44 % 1008,9 hPa 0,0 l/m N-NO 1,00 h 360 W/m 5,9 km/h (2 Bft)
18.05.2014 19:00 19,5 C 45 % 1008,7 hPa 0,0 l/m NO 1,00 h 177 W/m 5,9 km/h (2 Bft)
18.05.2014 20:00 16,2 C 63 % 1008,7 hPa 0,0 l/m NO 0,08 h 16 W/m 0,8 km/h (0 Bft)
18.05.2014 21:00 14,7 C 68 % 1008,8 hPa 0,0 l/m O-NO 0,00 h 0 W/m 10,3 km/h (2 Bft)
18.05.2014 22:00 12,7 C 80 % 1008,9 hPa 0,0 l/m O-NO 0,00 h 0 W/m 1,3 km/h (1 Bft)
18.05.2014 23:00 11,4 C 87 % 1008,7 hPa 0,0 l/m O-NO 0,00 h 0 W/m 3,5 km/h (1 Bft)
Min-Datum _ 18.05.14 14.05.14 18.05.14 - - - - 12.05.14
_ Min-Zeit 05:35 18:15 19:15 - - - - 20:35
Minimum _ 3,8 C 39 % 1008,6 hPa - - - - 0,0 km/h (0 Bft)
Max-Datum _ 18.05.14 15.05.14 15.05.14 13.05.14 - 12.05.14 15.05.14 12.05.14
_ Max-Zeit 17:35 07:25 21:55 19:05 - 06:45 13:00 14:55
Maximum _ 20,8 C 100 % 1029,6 hPa 2,6 l/m - 0,08 h 1111 W/m 43,5 km/h
SW (6 Bft)
Durchschnitt _ 9,5 C 76 % 1019,4 hPa #18,0 l/m W-SW #36:55 h 283 W/m 10,6 km/h (2 Bft)